createdAt,value
2023-04-14T00:01:16.194Z,64.21
2023-04-14T00:03:44.006Z,63.85
2023-04-14T00:06:12.849Z,64.41
2023-04-14T00:08:40.287Z,64.66
2023-04-14T00:11:07.754Z,64.72
2023-04-14T00:13:35.284Z,65.05
2023-04-14T00:16:02.925Z,64.16
2023-04-14T00:18:30.485Z,63.76
2023-04-14T00:20:57.943Z,63.16
2023-04-14T00:23:26.708Z,64.09
2023-04-14T00:25:54.150Z,63.94
2023-04-14T00:28:21.667Z,63.76
2023-04-14T00:30:49.113Z,64.01
2023-04-14T00:33:16.662Z,64.76
2023-04-14T00:35:44.096Z,64.55
2023-04-14T00:38:11.864Z,63.84
2023-04-14T00:40:40.694Z,64.50
2023-04-14T00:43:08.164Z,64.77
2023-04-14T00:45:42.444Z,63.90
2023-04-14T00:48:10.598Z,64.02
2023-04-14T00:50:38.360Z,63.13
2023-04-14T00:53:06.236Z,61.73
2023-04-14T00:55:34.856Z,60.87
2023-04-14T00:58:04.054Z,61.29
2023-04-14T01:00:31.650Z,61.70
2023-04-14T01:02:59.167Z,62.40
2023-04-14T01:05:26.731Z,61.69
2023-04-14T01:07:54.880Z,61.50
2023-04-14T01:10:22.961Z,59.83
2023-04-14T01:13:08.117Z,59.94
2023-04-14T01:15:42.318Z,61.05
2023-04-14T01:18:17.417Z,60.45
2023-04-14T01:20:49.235Z,60.92
2023-04-14T01:23:22.506Z,61.40
2023-04-14T01:26:15.565Z,61.71
2023-04-14T01:29:00.023Z,61.20
2023-04-14T01:31:31.540Z,61.45
2023-04-14T01:34:07.326Z,60.90
2023-04-14T01:36:42.120Z,61.36
2023-04-14T01:39:14.154Z,62.08
2023-04-14T01:41:45.741Z,61.11
2023-04-14T01:44:13.785Z,62.10
2023-04-14T01:46:43.719Z,60.94
2023-04-14T01:49:12.306Z,60.16
2023-04-14T01:51:43.554Z,60.82
2023-04-14T01:54:14.133Z,60.43
2023-04-14T01:56:44.272Z,62.13
2023-04-14T01:59:13.155Z,63.58
2023-04-14T02:01:44.942Z,63.44
2023-04-14T02:04:13.480Z,64.16
2023-04-14T02:06:41.878Z,64.18
2023-04-14T02:09:12.842Z,64.54
2023-04-14T02:11:41.213Z,63.51
2023-04-14T02:14:11.832Z,63.27
2023-04-14T02:16:40.840Z,62.44
2023-04-14T02:19:10.515Z,61.54
2023-04-14T02:21:39.309Z,61.57
2023-04-14T02:24:07.372Z,61.02
2023-04-14T02:26:38.682Z,60.77
2023-04-14T02:29:12.653Z,61.02
2023-04-14T02:31:44.340Z,60.99
2023-04-14T02:34:15.326Z,61.40
2023-04-14T02:36:46.969Z,61.77
2023-04-14T02:39:18.558Z,62.18
2023-04-14T02:41:47.848Z,62.26
2023-04-14T02:44:20.031Z,61.68
2023-04-14T02:46:54.640Z,61.56
2023-04-14T02:49:25.031Z,60.67
2023-04-14T02:51:54.148Z,60.56
2023-04-14T02:54:22.578Z,61.52
2023-04-14T02:56:51.123Z,61.53
2023-04-14T02:59:19.614Z,61.24
2023-04-14T03:01:49.573Z,62.23
2023-04-14T03:04:19.129Z,63.79
2023-04-14T03:06:49.289Z,61.86
2023-04-14T03:09:19.203Z,62.44
2023-04-14T03:11:47.411Z,62.29
2023-04-14T03:14:15.527Z,63.50
2023-04-14T03:16:43.767Z,63.17
2023-04-14T03:19:12.821Z,62.89
2023-04-14T03:21:40.536Z,63.61
2023-04-14T03:24:13.850Z,65.51
2023-04-14T03:26:43.981Z,65.27
2023-04-14T03:29:12.484Z,65.43
2023-04-14T03:31:40.941Z,66.39
2023-04-14T03:34:09.883Z,66.37
2023-04-14T03:36:38.008Z,67.09
2023-04-14T03:39:06.536Z,66.92
2023-04-14T03:41:38.595Z,66.62
2023-04-14T03:44:10.690Z,66.38
2023-04-14T03:46:38.222Z,67.29
2023-04-14T03:49:10.990Z,67.82
2023-04-14T03:51:41.539Z,67.47
2023-04-14T03:54:12.486Z,67.55
2023-04-14T03:56:45.221Z,67.33
2023-04-14T03:59:16.026Z,68.08
2023-04-14T04:01:44.908Z,68.13
2023-04-14T04:04:13.558Z,68.00
2023-04-14T04:06:41.938Z,67.84
2023-04-14T04:09:12.477Z,67.81
2023-04-14T04:11:44.081Z,68.16
2023-04-14T04:14:13.416Z,68.12
2023-04-14T04:16:43.554Z,68.25
2023-04-14T04:19:14.802Z,67.36
2023-04-14T04:21:45.730Z,67.39
2023-04-14T04:24:16.192Z,67.55
2023-04-14T04:26:45.140Z,66.68
2023-04-14T04:29:12.983Z,66.47
2023-04-14T04:31:41.082Z,67.35
2023-04-14T04:34:09.175Z,67.04
2023-04-14T04:36:38.651Z,67.28
2023-04-14T04:39:06.160Z,67.68
2023-04-14T04:41:33.598Z,67.57
2023-04-14T04:44:02.492Z,67.59
2023-04-14T04:46:46.697Z,66.99
2023-04-14T04:49:14.096Z,67.98
2023-04-14T04:51:41.990Z,67.13
2023-04-14T04:54:09.390Z,67.65
2023-04-14T04:56:36.888Z,68.26
2023-04-14T04:59:05.969Z,68.13
2023-04-14T05:01:34.017Z,68.32
2023-04-14T05:04:01.582Z,68.44
2023-04-14T05:06:29.314Z,68.38
2023-04-14T05:08:57.064Z,68.25
2023-04-14T05:11:24.660Z,68.33
2023-04-14T05:13:52.103Z,68.23
2023-04-14T05:16:21.060Z,68.43
2023-04-14T05:18:48.641Z,67.39
2023-04-14T05:21:16.393Z,67.82
2023-04-14T05:23:44.959Z,67.57
2023-04-14T05:26:38.809Z,67.13
2023-04-14T05:29:01.479Z,65.85
2023-04-14T05:31:30.941Z,65.09
2023-04-14T05:33:58.625Z,63.70
2023-04-14T05:36:27.284Z,62.35
2023-04-14T05:38:54.706Z,62.21
2023-04-14T05:41:23.441Z,62.10
2023-04-14T05:43:50.889Z,61.99
2023-04-14T05:46:18.387Z,61.16
2023-04-14T05:48:47.196Z,60.65
2023-04-14T05:51:14.618Z,60.86
2023-04-14T05:53:42.765Z,60.93
2023-04-14T05:56:11.531Z,62.08
2023-04-14T05:58:39.062Z,60.43
2023-04-14T06:01:06.597Z,59.74
2023-04-14T06:03:34.684Z,59.55
2023-04-14T06:06:05.663Z,59.35
2023-04-14T06:08:33.115Z,60.03
2023-04-14T06:11:00.574Z,59.44
2023-04-14T06:13:31.111Z,59.71
2023-04-14T06:16:00.680Z,59.03
2023-04-14T06:18:28.200Z,59.07
2023-04-14T06:20:55.666Z,59.46
2023-04-14T06:23:26.510Z,59.07
2023-04-14T06:25:54.937Z,59.20
2023-04-14T06:28:23.918Z,58.78
2023-04-14T06:30:51.692Z,58.60
2023-04-14T06:33:19.203Z,58.13
2023-04-14T06:35:46.714Z,58.60
2023-04-14T06:38:14.195Z,58.24
2023-04-14T06:40:43.859Z,57.72
2023-04-14T06:43:11.744Z,58.25
2023-04-14T06:45:39.288Z,57.68
2023-04-14T06:48:07.856Z,57.66
2023-04-14T06:50:35.551Z,58.35
2023-04-14T06:53:03.036Z,57.90
2023-04-14T06:55:30.870Z,58.16
2023-04-14T06:57:59.682Z,57.60
2023-04-14T07:00:27.401Z,58.22
2023-04-14T07:02:55.094Z,57.65
2023-04-14T07:05:23.217Z,57.12
2023-04-14T07:07:50.929Z,56.84
2023-04-14T07:10:18.680Z,56.90
2023-04-14T07:12:46.209Z,56.21
2023-04-14T07:15:15.364Z,56.48
2023-04-14T07:17:42.816Z,56.84
2023-04-14T07:20:11.524Z,56.89
2023-04-14T07:22:39.459Z,56.94
2023-04-14T07:25:07.469Z,56.26
2023-04-14T07:27:34.949Z,56.19
2023-04-14T07:30:02.418Z,56.29
2023-04-14T07:32:31.619Z,56.30
2023-04-14T07:34:59.537Z,55.98
2023-04-14T07:37:27.388Z,56.03
2023-04-14T07:39:55.226Z,55.76
2023-04-14T07:42:22.681Z,55.94
2023-04-14T07:44:50.130Z,55.84
2023-04-14T07:47:17.594Z,57.01
2023-04-14T07:49:46.437Z,55.25
2023-04-14T07:52:13.841Z,58.42
2023-04-14T07:54:41.310Z,56.98
2023-04-14T07:57:10.711Z,56.47
2023-04-14T07:59:42.626Z,56.10
2023-04-14T08:02:10.391Z,57.74
2023-04-14T08:04:37.890Z,56.14
2023-04-14T08:07:06.686Z,55.65
2023-04-14T08:09:34.615Z,55.11
2023-04-14T08:12:02.729Z,54.52
2023-04-14T08:14:30.292Z,53.63
2023-04-14T08:16:57.782Z,54.80
2023-04-14T08:19:25.250Z,55.67
2023-04-14T08:21:53.422Z,52.36
2023-04-14T08:24:22.203Z,53.08
2023-04-14T08:26:49.704Z,55.14
2023-04-14T08:29:17.193Z,55.83
2023-04-14T08:31:44.710Z,55.85
2023-04-14T08:34:12.307Z,55.11
2023-04-14T08:36:42.871Z,54.27
2023-04-14T08:39:10.414Z,55.91
2023-04-14T08:41:40.326Z,54.92
2023-04-14T08:44:07.899Z,54.34
2023-04-14T08:46:36.707Z,56.98
2023-04-14T08:49:05.770Z,54.79
2023-04-14T08:51:36.520Z,51.88
2023-04-14T08:54:08.307Z,50.95
2023-04-14T08:56:40.152Z,50.18
2023-04-14T08:59:08.311Z,48.90
2023-04-14T09:01:36.853Z,50.24
2023-04-14T09:04:05.374Z,49.27
2023-04-14T09:06:34.283Z,47.32
2023-04-14T09:09:03.799Z,47.85
2023-04-14T09:11:31.643Z,48.64
2023-04-14T09:14:01.945Z,47.93
2023-04-14T09:16:30.097Z,47.35
2023-04-14T09:19:07.214Z,49.00
2023-04-14T09:21:52.414Z,48.31
2023-04-14T09:24:23.672Z,47.47
2023-04-14T09:26:51.945Z,46.39
2023-04-14T09:29:20.787Z,45.91
2023-04-14T09:31:48.468Z,46.66
2023-04-14T09:34:17.944Z,46.32
2023-04-14T09:37:01.010Z,47.74
2023-04-14T09:39:28.418Z,45.73
2023-04-14T09:41:56.171Z,46.95
2023-04-14T09:44:25.137Z,45.45
2023-04-14T09:47:02.895Z,44.91
2023-04-14T09:49:31.044Z,45.11
2023-04-14T09:52:05.390Z,44.64
2023-04-14T09:54:33.347Z,45.03
2023-04-14T09:57:01.220Z,45.18
2023-04-14T09:59:34.827Z,44.58
2023-04-14T10:02:06.090Z,45.19
2023-04-14T10:04:33.984Z,44.09
2023-04-14T10:07:01.900Z,42.23
2023-04-14T10:09:30.842Z,44.02
2023-04-14T10:12:10.292Z,44.31
2023-04-14T10:14:40.263Z,44.75
2023-04-14T10:17:08.000Z,42.06
2023-04-14T10:19:36.428Z,43.21
2023-04-14T10:22:04.815Z,43.27
2023-04-14T10:24:33.249Z,43.95
2023-04-14T10:27:03.607Z,43.94
2023-04-14T10:29:31.710Z,42.82
2023-04-14T10:32:05.291Z,40.71
2023-04-14T10:34:34.383Z,40.19
2023-04-14T10:37:13.826Z,41.54
2023-04-14T10:39:42.112Z,42.40
2023-04-14T10:42:09.880Z,40.98
2023-04-14T10:44:38.041Z,38.86
2023-04-14T10:47:08.892Z,38.95
2023-04-14T10:49:38.069Z,39.54
2023-04-14T10:52:07.509Z,37.40
2023-04-14T10:54:49.975Z,38.63
2023-04-14T10:57:18.733Z,38.49
2023-04-14T10:59:47.663Z,38.77
2023-04-14T11:02:27.829Z,38.46
2023-04-14T11:05:03.999Z,39.05
2023-04-14T11:07:37.891Z,38.61
2023-04-14T11:10:28.249Z,38.79
2023-04-14T11:12:57.800Z,38.31
2023-04-14T11:15:25.342Z,38.34
2023-04-14T11:17:54.994Z,37.22
2023-04-14T11:20:23.664Z,37.00
2023-04-14T11:22:54.031Z,37.59
2023-04-14T11:25:24.882Z,36.51
2023-04-14T11:27:52.990Z,36.57
2023-04-14T11:30:22.319Z,35.15
2023-04-14T11:32:51.566Z,34.47
2023-04-14T11:35:21.706Z,34.63
2023-04-14T11:37:49.268Z,35.17
2023-04-14T11:40:17.078Z,33.77
2023-04-14T11:42:46.362Z,32.72
2023-04-14T11:45:16.382Z,31.85
2023-04-14T11:47:48.710Z,33.56
2023-04-14T11:50:18.047Z,32.79
2023-04-14T11:52:47.489Z,33.92
2023-04-14T11:55:15.202Z,32.67
2023-04-14T11:57:47.025Z,33.66
2023-04-14T12:00:15.156Z,34.44
2023-04-14T12:02:45.369Z,34.56
2023-04-14T12:05:13.784Z,34.35
2023-04-14T12:07:44.465Z,34.11
2023-04-14T12:10:13.458Z,34.51
2023-04-14T12:12:41.049Z,34.30
2023-04-14T12:15:09.918Z,33.85
2023-04-14T12:17:38.424Z,34.25
2023-04-14T12:20:07.729Z,34.88
2023-04-14T12:22:35.221Z,35.02
2023-04-14T12:25:13.077Z,33.92
2023-04-14T12:27:41.018Z,34.93
2023-04-14T12:30:10.562Z,34.83
2023-04-14T12:32:41.792Z,33.29
2023-04-14T12:35:10.010Z,34.27
2023-04-14T12:37:38.611Z,34.53
2023-04-14T12:40:07.752Z,36.41
2023-04-14T12:42:47.858Z,35.67
2023-04-14T12:45:15.925Z,35.78
2023-04-14T12:47:53.636Z,35.74
2023-04-14T12:50:27.966Z,35.49
2023-04-14T12:52:55.834Z,35.99
2023-04-14T12:55:24.950Z,35.88
2023-04-14T12:57:54.885Z,35.37
2023-04-14T13:00:22.990Z,34.71
2023-04-14T13:02:51.058Z,36.13
2023-04-14T13:05:19.069Z,35.73
2023-04-14T13:07:47.266Z,36.20
2023-04-14T13:10:15.800Z,36.57
2023-04-14T13:12:43.629Z,35.15
2023-04-14T13:15:59.961Z,37.73
2023-04-14T13:18:01.036Z,37.02
2023-04-14T13:20:30.300Z,36.87
2023-04-14T13:22:57.780Z,36.88
2023-04-14T13:25:25.456Z,36.59
2023-04-14T13:27:52.919Z,37.13
2023-04-14T13:30:21.898Z,36.11
2023-04-14T13:32:49.410Z,36.72
2023-04-14T13:35:17.079Z,36.38
2023-04-14T13:37:44.544Z,35.69
2023-04-14T13:40:12.714Z,37.68
2023-04-14T13:42:40.153Z,37.14
2023-04-14T13:45:09.263Z,36.52
2023-04-14T13:47:38.116Z,38.16
2023-04-14T13:50:06.093Z,35.94
2023-04-14T13:52:33.681Z,36.13
2023-04-14T13:55:01.365Z,35.01
2023-04-14T13:57:36.712Z,35.75
2023-04-14T14:00:07.266Z,35.15
2023-04-14T14:02:34.862Z,34.16
2023-04-14T14:05:03.768Z,33.24
2023-04-14T14:07:31.214Z,32.66
2023-04-14T14:09:58.695Z,31.66
2023-04-14T14:12:26.269Z,32.39
2023-04-14T14:14:53.811Z,32.46
2023-04-14T14:17:21.340Z,30.90
2023-04-14T14:19:49.136Z,31.66
2023-04-14T14:22:17.950Z,29.30
2023-04-14T14:24:45.955Z,31.63
2023-04-14T14:27:13.470Z,32.27
2023-04-14T14:29:41.349Z,31.48
2023-04-14T14:32:09.298Z,31.94
2023-04-14T14:34:38.647Z,32.84
2023-04-14T14:37:06.383Z,33.99
2023-04-14T14:39:35.255Z,33.96
2023-04-14T14:42:02.740Z,35.31
2023-04-14T14:44:30.457Z,35.18
2023-04-14T14:46:58.682Z,35.30
2023-04-14T14:49:27.336Z,36.44
2023-04-14T14:51:54.809Z,36.51
2023-04-14T14:54:22.295Z,36.74
2023-04-14T14:56:51.136Z,37.06
2023-04-14T14:59:18.596Z,37.71
2023-04-14T15:01:46.221Z,36.49
2023-04-14T15:04:14.090Z,35.90
2023-04-14T15:06:41.676Z,37.30
2023-04-14T15:09:09.157Z,37.21
2023-04-14T15:11:36.643Z,37.59
2023-04-14T15:14:05.916Z,36.49
2023-04-14T15:16:33.441Z,36.63
2023-04-14T15:19:00.951Z,37.61
2023-04-14T15:21:28.472Z,35.97
2023-04-14T15:23:55.969Z,36.19
2023-04-14T15:26:23.426Z,37.09
2023-04-14T15:28:51.174Z,37.45
2023-04-14T15:31:20.040Z,36.83
2023-04-14T15:33:47.561Z,39.16
2023-04-14T15:36:15.369Z,37.14
2023-04-14T15:38:42.833Z,36.76
2023-04-14T15:41:10.348Z,37.39
2023-04-14T15:43:37.781Z,39.34
2023-04-14T15:46:05.589Z,39.31
2023-04-14T15:48:34.409Z,38.43
2023-04-14T15:51:01.948Z,40.37
2023-04-14T15:53:29.404Z,39.80
2023-04-14T15:55:57.041Z,37.53
2023-04-14T15:58:24.544Z,39.19
2023-04-14T16:00:52.290Z,37.52
2023-04-14T16:03:20.038Z,37.79
2023-04-14T16:05:49.027Z,40.05
2023-04-14T16:08:16.816Z,39.52
2023-04-14T16:10:44.448Z,36.76
2023-04-14T16:13:12.176Z,38.49
2023-04-14T16:15:40.612Z,37.60
2023-04-14T16:18:08.080Z,37.22
2023-04-14T16:20:35.832Z,39.01
2023-04-14T16:23:04.576Z,42.26
2023-04-14T16:25:32.041Z,38.34
2023-04-14T16:27:59.464Z,39.07
2023-04-14T16:30:26.962Z,42.20
2023-04-14T16:32:54.465Z,39.11
2023-04-14T16:35:21.908Z,39.17
2023-04-14T16:37:49.434Z,37.87
2023-04-14T16:40:18.406Z,41.89
2023-04-14T16:42:46.771Z,39.02
2023-04-14T16:45:14.326Z,38.15
2023-04-14T16:47:41.782Z,39.84
2023-04-14T16:50:09.867Z,41.16
2023-04-14T16:52:37.772Z,38.79
2023-04-14T16:55:05.791Z,39.62
2023-04-14T16:57:34.561Z,37.51
2023-04-14T17:00:02.021Z,39.73
2023-04-14T17:02:29.623Z,38.40
2023-04-14T17:04:58.247Z,37.66
2023-04-14T17:07:25.858Z,40.11
2023-04-14T17:09:54.115Z,41.49
2023-04-14T17:12:22.308Z,42.79
2023-04-14T17:14:51.386Z,43.63
2023-04-14T17:17:19.091Z,43.35
2023-04-14T17:19:46.640Z,44.16
2023-04-14T17:22:15.117Z,44.64
2023-04-14T17:24:42.779Z,44.98
2023-04-14T17:27:10.338Z,44.68
2023-04-14T17:29:37.823Z,45.03
2023-04-14T17:32:07.008Z,45.20
2023-04-14T17:34:34.659Z,45.70
2023-04-14T17:37:02.201Z,45.42
2023-04-14T17:39:29.692Z,44.73
2023-04-14T17:41:58.381Z,44.80
2023-04-14T17:44:32.174Z,45.02
2023-04-14T17:47:00.902Z,46.25
2023-04-14T17:49:29.903Z,46.10
2023-04-14T17:51:57.738Z,46.39
2023-04-14T17:54:25.651Z,46.25
2023-04-14T17:56:53.662Z,46.37
2023-04-14T17:59:21.408Z,44.71
2023-04-14T18:01:48.887Z,45.39
2023-04-14T18:04:17.034Z,44.67
2023-04-14T18:06:45.846Z,45.20
2023-04-14T18:09:13.308Z,45.64
2023-04-14T18:11:40.748Z,46.93
2023-04-14T18:14:08.490Z,47.25
2023-04-14T18:16:36.033Z,46.06
2023-04-14T18:19:03.613Z,46.92
2023-04-14T18:21:31.212Z,48.21
2023-04-14T18:26:30.747Z,49.73
2023-04-14T18:28:58.271Z,49.23
2023-04-14T18:31:26.032Z,50.82
2023-04-14T18:33:53.839Z,52.52
2023-04-14T18:36:21.388Z,50.97
2023-04-14T18:38:49.447Z,51.50
2023-04-14T18:41:18.226Z,51.23
2023-04-14T18:43:45.716Z,51.01
2023-04-14T18:46:13.236Z,50.49
2023-04-14T18:48:41.529Z,50.48
2023-04-14T18:51:10.519Z,52.12
2023-04-14T18:53:40.316Z,53.64
2023-04-14T18:56:09.742Z,51.54
2023-04-14T18:58:39.803Z,50.15
2023-04-14T19:01:08.281Z,49.41
2023-04-14T19:03:36.465Z,48.90
2023-04-14T19:06:03.993Z,50.01
2023-04-14T19:08:31.520Z,51.05
2023-04-14T19:10:59.740Z,47.01
2023-04-14T19:13:27.286Z,46.83
2023-04-14T19:16:04.570Z,46.98
2023-04-14T19:18:32.530Z,46.37
2023-04-14T19:21:00.026Z,46.20
2023-04-14T19:23:27.530Z,45.26
2023-04-14T19:25:56.060Z,45.67
2023-04-14T19:28:23.518Z,44.87
2023-04-14T19:30:51.065Z,44.90
2023-04-14T19:33:20.015Z,46.01
2023-04-14T19:35:48.919Z,48.04
2023-04-14T19:38:16.387Z,47.29
2023-04-14T19:40:47.971Z,47.79
2023-04-14T19:43:16.124Z,48.12
2023-04-14T19:45:51.275Z,48.19
2023-04-14T19:48:23.975Z,50.01
2023-04-14T19:50:54.123Z,49.11
2023-04-14T19:53:21.886Z,49.67
2023-04-14T19:55:50.938Z,49.82
2023-04-14T19:58:21.373Z,49.46
2023-04-14T20:00:51.364Z,49.04
2023-04-14T20:03:20.760Z,49.98
2023-04-14T20:05:51.709Z,49.97
2023-04-14T20:08:20.253Z,49.81
2023-04-14T20:10:51.046Z,49.29
2023-04-14T20:13:19.319Z,48.06
2023-04-14T20:15:48.748Z,48.12
2023-04-14T20:18:18.108Z,48.63
2023-04-14T20:20:48.548Z,49.05
2023-04-14T20:23:16.822Z,49.09
2023-04-14T20:25:45.526Z,49.25
2023-04-14T20:28:14.924Z,48.08
2023-04-14T20:30:44.692Z,49.24
2023-04-14T20:33:12.165Z,48.75
2023-04-14T20:35:43.017Z,48.40
2023-04-14T20:38:15.016Z,48.22
2023-04-14T20:40:43.380Z,48.88
2023-04-14T20:43:10.841Z,47.10
2023-04-14T20:45:38.549Z,47.16
2023-04-14T20:48:07.719Z,46.70
2023-04-14T20:50:35.738Z,46.48
2023-04-14T20:53:03.160Z,46.58
2023-04-14T20:55:31.948Z,46.74
2023-04-14T20:57:59.415Z,47.25
2023-04-14T21:00:26.901Z,47.11
2023-04-14T21:02:54.487Z,47.79
2023-04-14T21:05:22.612Z,46.96
2023-04-14T21:07:50.189Z,46.94
2023-04-14T21:10:17.627Z,45.90
2023-04-14T21:15:24.854Z,46.54
2023-04-14T21:15:55.727Z,47.33
2023-04-14T21:18:21.678Z,48.92
2023-04-14T21:20:49.163Z,52.08
2023-04-14T21:23:16.663Z,51.17
2023-04-14T21:25:44.209Z,51.92
2023-04-14T21:28:13.082Z,53.79
2023-04-14T21:30:40.530Z,52.61
2023-04-14T21:33:08.635Z,52.81
2023-04-14T21:35:36.355Z,52.75
2023-04-14T21:38:04.355Z,52.58
2023-04-14T21:40:31.899Z,52.17
2023-04-14T21:42:59.355Z,53.02
2023-04-14T21:45:28.292Z,53.55
2023-04-14T21:47:55.798Z,52.80
2023-04-14T21:50:23.597Z,51.01
2023-04-14T21:52:51.391Z,53.90
2023-04-14T21:55:18.999Z,54.95
2023-04-14T21:57:49.322Z,54.21
2023-04-14T22:00:20.795Z,55.27
2023-04-14T22:02:49.772Z,56.40
2023-04-14T22:05:17.461Z,55.26
2023-04-14T22:07:47.228Z,53.39
2023-04-14T22:10:14.717Z,52.57
2023-04-14T22:12:42.357Z,51.81
2023-04-14T22:15:11.015Z,51.28
2023-04-14T22:17:41.838Z,53.32
2023-04-14T22:20:11.988Z,52.10
2023-04-14T22:22:39.444Z,52.27
2023-04-14T22:25:07.960Z,51.37
2023-04-14T22:27:43.532Z,53.18
2023-04-14T22:30:12.005Z,52.52
2023-04-14T22:32:39.622Z,55.14
2023-04-14T22:35:08.021Z,56.80
2023-04-14T22:37:37.128Z,56.62
2023-04-14T22:40:07.469Z,57.25
2023-04-14T22:42:34.993Z,58.48
2023-04-14T22:45:02.451Z,58.09
2023-04-14T22:47:29.928Z,58.09
2023-04-14T22:49:57.389Z,59.16
2023-04-14T22:52:24.945Z,59.66
2023-04-14T22:54:53.722Z,59.34
2023-04-14T22:57:21.452Z,58.39
2023-04-14T22:59:48.949Z,57.12
2023-04-14T23:02:16.577Z,57.49
2023-04-14T23:04:44.156Z,56.16
2023-04-14T23:07:12.098Z,57.51
2023-04-14T23:09:39.540Z,58.09
2023-04-14T23:12:08.285Z,60.03
2023-04-14T23:14:35.742Z,61.43
2023-04-14T23:17:03.182Z,61.69
2023-04-14T23:19:32.860Z,61.62
2023-04-14T23:22:00.329Z,61.87
2023-04-14T23:24:27.767Z,61.87
2023-04-14T23:26:55.313Z,62.57
2023-04-14T23:29:24.092Z,62.00
2023-04-14T23:31:51.759Z,62.44
2023-04-14T23:34:19.290Z,63.18
2023-04-14T23:36:46.759Z,62.33
2023-04-14T23:39:14.159Z,61.25
2023-04-14T23:41:41.655Z,62.17
2023-04-14T23:44:09.112Z,62.37
2023-04-14T23:46:38.024Z,63.11
2023-04-14T23:49:23.504Z,62.54
2023-04-14T23:51:52.657Z,62.69
2023-04-14T23:54:20.124Z,62.20
2023-04-14T23:56:48.368Z,62.09
2023-04-14T23:59:16.389Z,61.56
